createdAt,value
2023-01-21T00:00:40.725Z,19.10
2023-01-21T00:03:07.961Z,20.50
2023-01-21T00:05:35.138Z,19.73
2023-01-21T00:10:30.528Z,20.95
2023-01-21T00:12:57.537Z,19.83
2023-01-21T00:15:24.681Z,20.65
2023-01-21T00:17:54.863Z,19.13
2023-01-21T00:20:22.536Z,20.92
2023-01-21T00:25:16.710Z,18.63
2023-01-21T00:27:43.725Z,17.92
2023-01-21T00:30:11.366Z,16.35
2023-01-21T00:32:38.459Z,14.70
2023-01-21T00:37:33.290Z,15.63
2023-01-21T00:40:00.519Z,15.70
2023-01-21T00:42:28.742Z,15.18
2023-01-21T00:44:57.542Z,14.02
2023-01-21T00:47:25.007Z,16.25
2023-01-21T00:49:52.149Z,16.15
2023-01-21T00:54:46.316Z,16.38
2023-01-21T00:59:41.180Z,15.15
2023-01-21T01:04:35.668Z,18.38
2023-01-21T01:09:29.846Z,17.23
2023-01-21T01:14:24.029Z,14.98
2023-01-21T01:16:51.147Z,19.67
2023-01-21T01:21:45.372Z,18.52
2023-01-21T01:24:12.432Z,19.73
2023-01-21T01:29:13.573Z,19.42
2023-01-21T01:31:40.782Z,19.95
2023-01-21T01:34:08.005Z,22.00
2023-01-21T01:36:35.138Z,23.02
2023-01-21T01:41:30.277Z,21.45
2023-01-21T01:43:58.806Z,21.67
2023-01-21T01:46:28.036Z,20.25
2023-01-21T01:49:02.727Z,20.83
2023-01-21T01:51:43.334Z,21.55
2023-01-21T01:54:11.257Z,21.83
2023-01-21T01:56:38.344Z,22.83
2023-01-21T02:01:32.378Z,18.23
2023-01-21T02:06:28.079Z,14.77
2023-01-21T02:11:22.223Z,18.15
2023-01-21T02:16:36.791Z,18.67
2023-01-21T02:19:18.957Z,16.40
2023-01-21T02:22:04.787Z,17.70
2023-01-21T02:24:50.868Z,19.40
2023-01-21T02:27:43.491Z,19.30
2023-01-21T02:30:29.174Z,18.67
2023-01-21T02:33:02.666Z,20.38
2023-01-21T02:35:39.460Z,20.52
2023-01-21T02:38:34.566Z,18.37
2023-01-21T02:41:20.188Z,17.60
2023-01-21T02:44:08.833Z,20.15
2023-01-21T02:46:46.151Z,18.67
2023-01-21T02:49:25.927Z,19.38
2023-01-21T02:51:53.155Z,19.15
2023-01-21T02:57:07.043Z,18.98
2023-01-21T02:59:34.197Z,19.77
2023-01-21T03:04:56.436Z,21.15
2023-01-21T03:07:29.029Z,18.27
2023-01-21T03:09:59.755Z,20.10
2023-01-21T03:12:50.575Z,20.88
2023-01-21T03:15:46.376Z,19.33
2023-01-21T03:18:15.326Z,19.20
2023-01-21T03:20:47.956Z,15.93
2023-01-21T03:23:17.916Z,19.17
2023-01-21T03:25:44.930Z,18.85
2023-01-21T03:28:13.569Z,17.17
2023-01-21T03:30:41.545Z,15.27
2023-01-21T03:33:09.579Z,16.10
2023-01-21T03:35:39.658Z,16.77
2023-01-21T03:38:12.157Z,14.63
2023-01-21T03:40:53.479Z,10.70
2023-01-21T03:43:20.786Z,11.48
2023-01-21T03:46:05.266Z,10.45
2023-01-21T03:48:34.221Z,11.13
2023-01-21T03:51:05.267Z,10.93
2023-01-21T03:53:32.488Z,11.48
2023-01-21T03:58:27.633Z,10.45
2023-01-21T04:00:54.873Z,12.70
2023-01-21T04:03:22.141Z,12.98
2023-01-21T04:05:49.147Z,15.52
2023-01-21T04:08:16.299Z,15.30
2023-01-21T04:13:10.239Z,16.20
2023-01-21T04:18:04.232Z,15.32
2023-01-21T04:22:58.430Z,15.25
2023-01-21T04:25:25.573Z,13.32
2023-01-21T04:27:52.725Z,14.38
2023-01-21T04:32:46.907Z,13.52
2023-01-21T04:37:41.225Z,12.93
2023-01-21T04:40:08.888Z,13.77
2023-01-21T04:42:36.015Z,12.98
2023-01-21T04:47:30.082Z,11.85
2023-01-21T04:52:24.232Z,13.10
2023-01-21T04:57:18.408Z,11.40
2023-01-21T05:02:12.647Z,13.10
2023-01-21T05:07:06.825Z,12.30
2023-01-21T05:12:00.940Z,12.60
2023-01-21T05:16:55.122Z,12.20
2023-01-21T05:19:22.268Z,13.23
2023-01-21T05:24:16.259Z,12.60
2023-01-21T05:29:10.668Z,11.98
2023-01-21T05:31:38.014Z,12.93
2023-01-21T05:34:05.106Z,12.25
2023-01-21T05:36:32.259Z,12.57
2023-01-21T05:41:26.597Z,12.65
2023-01-21T05:43:53.715Z,13.90
2023-01-21T05:48:47.906Z,13.40
2023-01-21T05:53:42.069Z,13.23
2023-01-21T05:56:09.118Z,13.40
2023-01-21T05:58:36.695Z,13.05
2023-01-21T06:01:03.936Z,13.40
2023-01-21T06:03:31.088Z,13.65
2023-01-21T06:08:25.185Z,13.13
2023-01-21T06:13:22.115Z,14.95
2023-01-21T06:18:16.373Z,14.15
2023-01-21T06:20:43.589Z,13.52
2023-01-21T06:23:10.912Z,14.35
2023-01-21T06:25:37.995Z,14.15
2023-01-21T06:28:05.067Z,14.25
2023-01-21T06:32:59.144Z,13.30
2023-01-21T06:35:26.312Z,13.98
2023-01-21T06:40:20.392Z,14.07
2023-01-21T06:45:16.749Z,13.77
2023-01-21T06:47:44.291Z,13.40
2023-01-21T06:50:12.744Z,13.80
2023-01-21T06:52:43.286Z,13.70
2023-01-21T06:55:10.760Z,14.57
2023-01-21T06:57:38.242Z,14.35
2023-01-21T07:00:06.324Z,12.90
2023-01-21T07:02:33.292Z,13.15
2023-01-21T07:05:00.519Z,13.50
2023-01-21T07:07:27.756Z,13.35
2023-01-21T07:09:54.877Z,13.40
2023-01-21T07:14:49.197Z,14.65
2023-01-21T07:19:43.707Z,14.40
2023-01-21T07:22:10.809Z,14.55
2023-01-21T07:27:06.281Z,13.05
2023-01-21T07:29:33.521Z,15.40
2023-01-21T07:32:00.980Z,14.35
2023-01-21T07:34:28.039Z,14.27
2023-01-21T07:39:22.047Z,14.30
2023-01-21T07:41:49.123Z,14.65
2023-01-21T07:44:18.301Z,15.35
2023-01-21T07:46:45.358Z,14.05
2023-01-21T07:51:45.595Z,13.77
2023-01-21T07:54:12.917Z,15.32
2023-01-21T07:56:39.982Z,15.65
2023-01-21T08:01:34.016Z,12.80
2023-01-21T08:04:01.342Z,14.27
2023-01-21T08:06:28.466Z,14.27
2023-01-21T08:11:22.564Z,14.82
2023-01-21T08:16:17.122Z,13.50
2023-01-21T08:18:44.222Z,13.63
2023-01-21T08:23:38.232Z,13.90
2023-01-21T08:28:33.309Z,14.23
2023-01-21T08:31:08.488Z,14.60
2023-01-21T08:33:35.633Z,13.75
2023-01-21T08:38:30.191Z,13.73
2023-01-21T08:40:58.397Z,12.70
2023-01-21T08:43:25.866Z,13.30
2023-01-21T08:45:55.474Z,14.20
2023-01-21T08:48:22.661Z,13.57
2023-01-21T08:53:16.761Z,13.43
2023-01-21T08:58:11.681Z,13.30
2023-01-21T09:00:38.949Z,12.82
2023-01-21T09:03:05.981Z,14.07
2023-01-21T09:05:33.020Z,14.93
2023-01-21T09:10:45.626Z,12.98
2023-01-21T09:13:12.713Z,14.02
2023-01-21T09:18:10.130Z,12.93
2023-01-21T09:20:37.387Z,12.85
2023-01-21T09:23:24.277Z,13.90
2023-01-21T09:26:05.291Z,12.80
2023-01-21T09:28:33.806Z,13.10
2023-01-21T09:31:02.760Z,12.43
2023-01-21T09:33:30.274Z,12.93
2023-01-21T09:35:58.397Z,13.70
2023-01-21T09:38:26.154Z,13.48
2023-01-21T09:40:53.346Z,12.43
2023-01-21T09:43:27.419Z,12.85
2023-01-21T09:45:56.316Z,12.52
2023-01-21T09:48:29.909Z,12.30
2023-01-21T09:50:57.416Z,12.48
2023-01-21T09:53:31.252Z,12.27
2023-01-21T09:55:58.941Z,12.48
2023-01-21T09:58:39.534Z,12.27
2023-01-21T10:01:12.336Z,12.23
2023-01-21T10:03:43.428Z,12.55
2023-01-21T10:06:43.226Z,11.95
2023-01-21T10:09:25.462Z,12.63
2023-01-21T10:12:14.351Z,11.20
2023-01-21T10:14:46.922Z,12.32
2023-01-21T10:17:30.099Z,12.02
2023-01-21T10:20:05.745Z,12.57
2023-01-21T10:22:32.725Z,11.40
2023-01-21T10:25:20.031Z,12.80
2023-01-21T10:27:47.241Z,11.65
2023-01-21T10:30:26.828Z,11.73
2023-01-21T10:32:55.311Z,10.82
2023-01-21T10:35:38.351Z,12.15
2023-01-21T10:38:26.769Z,11.07
2023-01-21T10:41:14.544Z,11.95
2023-01-21T10:44:03.901Z,11.75
2023-01-21T10:46:30.872Z,11.95
2023-01-21T10:49:03.712Z,11.80
2023-01-21T10:51:36.034Z,10.93
2023-01-21T10:54:49.992Z,12.43
2023-01-21T10:57:29.843Z,11.35
2023-01-21T10:59:58.441Z,11.48
2023-01-21T11:02:30.111Z,11.35
2023-01-21T11:04:58.754Z,11.93
2023-01-21T11:07:25.744Z,11.50
2023-01-21T11:09:52.764Z,11.80
2023-01-21T11:12:21.072Z,12.05
2023-01-21T11:15:12.305Z,11.27
2023-01-21T11:17:40.463Z,12.02
2023-01-21T11:20:45.934Z,12.05
2023-01-21T11:23:32.925Z,11.60
2023-01-21T11:26:26.555Z,12.27
2023-01-21T11:29:11.483Z,11.68
2023-01-21T11:31:38.706Z,11.82
2023-01-21T11:34:14.598Z,11.50
2023-01-21T11:37:00.418Z,11.73
2023-01-21T11:39:38.680Z,11.25
2023-01-21T11:42:14.232Z,11.63
2023-01-21T11:45:04.479Z,12.63
2023-01-21T11:47:38.808Z,11.30
2023-01-21T11:50:17.320Z,11.13
2023-01-21T11:52:44.906Z,12.57
2023-01-21T11:55:24.507Z,12.35
2023-01-21T11:57:53.265Z,11.52
2023-01-21T12:00:22.190Z,12.35
2023-01-21T12:02:51.985Z,12.25
2023-01-21T12:05:27.290Z,11.90
2023-01-21T12:07:54.432Z,12.23
2023-01-21T12:13:13.222Z,12.55
2023-01-21T12:16:06.952Z,11.85
2023-01-21T12:18:42.907Z,11.10
2023-01-21T12:21:15.531Z,10.73
2023-01-21T12:24:01.108Z,11.23
2023-01-21T12:26:30.919Z,10.65
2023-01-21T12:29:11.109Z,11.27
2023-01-21T12:31:47.716Z,11.68
2023-01-21T12:34:48.015Z,11.70
2023-01-21T12:37:27.309Z,11.48
2023-01-21T12:39:54.694Z,11.63
2023-01-21T12:42:32.153Z,12.00
2023-01-21T12:45:10.162Z,11.23
2023-01-21T12:47:54.936Z,11.77
2023-01-21T12:50:30.289Z,12.23
2023-01-21T12:53:10.375Z,11.18
2023-01-21T12:55:54.916Z,11.90
2023-01-21T12:58:22.126Z,12.13
2023-01-21T13:00:49.871Z,11.63
2023-01-21T13:03:26.401Z,11.18
2023-01-21T13:06:05.652Z,11.30
2023-01-21T13:08:53.543Z,12.35
2023-01-21T13:11:28.122Z,11.18
2023-01-21T13:14:28.447Z,12.38
2023-01-21T13:17:01.272Z,8.95
2023-01-21T13:19:28.420Z,12.20
2023-01-21T13:24:31.993Z,10.88
2023-01-21T13:27:23.147Z,10.52
2023-01-21T13:29:59.113Z,10.82
2023-01-21T13:32:38.350Z,10.10
2023-01-21T13:35:13.000Z,9.18
2023-01-21T13:37:56.010Z,8.45
2023-01-21T13:40:35.348Z,8.98
2023-01-21T13:43:19.118Z,9.07
2023-01-21T13:46:16.891Z,8.95
2023-01-21T13:48:52.479Z,9.57
2023-01-21T13:51:45.090Z,9.88
2023-01-21T13:54:20.588Z,9.57
2023-01-21T13:56:55.164Z,9.30
2023-01-21T13:59:25.426Z,8.27
2023-01-21T14:01:56.745Z,8.13
2023-01-21T14:04:32.428Z,8.27
2023-01-21T14:07:08.758Z,8.23
2023-01-21T14:09:41.693Z,8.60
2023-01-21T14:12:31.872Z,7.47
2023-01-21T14:15:26.290Z,8.00
2023-01-21T14:18:30.083Z,5.72
2023-01-21T14:21:15.539Z,7.07
2023-01-21T14:24:10.384Z,7.95
2023-01-21T14:26:52.233Z,6.95
2023-01-21T14:29:25.273Z,6.82
2023-01-21T14:31:59.854Z,7.03
2023-01-21T14:34:51.700Z,5.53
2023-01-21T14:37:29.857Z,7.75
2023-01-21T14:40:38.148Z,6.03
2023-01-21T14:43:05.278Z,5.97
2023-01-21T14:48:29.517Z,6.00
2023-01-21T14:53:43.320Z,5.47
2023-01-21T14:56:16.229Z,4.90
2023-01-21T14:58:47.939Z,5.32
2023-01-21T15:01:35.307Z,4.97
2023-01-21T15:04:07.383Z,5.60
2023-01-21T15:06:39.020Z,4.88
2023-01-21T15:09:06.172Z,4.53
2023-01-21T15:14:14.298Z,4.68
2023-01-21T15:16:42.657Z,3.38
2023-01-21T15:19:09.707Z,3.58
2023-01-21T15:21:45.355Z,3.58
2023-01-21T15:24:19.004Z,3.05
2023-01-21T15:27:19.084Z,3.42
2023-01-21T15:29:55.230Z,3.20
2023-01-21T15:32:35.096Z,3.25
2023-01-21T15:35:24.422Z,3.33
2023-01-21T15:37:53.052Z,2.72
2023-01-21T15:40:23.906Z,2.97
2023-01-21T15:43:03.852Z,3.05
2023-01-21T15:45:45.580Z,2.22
2023-01-21T15:48:41.605Z,2.42
2023-01-21T15:51:20.378Z,2.47
2023-01-21T15:54:09.388Z,2.30
2023-01-21T15:56:55.063Z,2.53
2023-01-21T15:59:31.801Z,2.33
2023-01-21T16:02:23.143Z,2.10
2023-01-21T16:05:02.187Z,2.03
2023-01-21T16:07:54.197Z,1.30
2023-01-21T16:11:08.553Z,2.53
2023-01-21T16:13:55.393Z,1.80
2023-01-21T16:16:47.175Z,1.80
2023-01-21T16:19:23.432Z,2.22
2023-01-21T16:21:52.751Z,2.53
2023-01-21T16:24:22.272Z,2.38
2023-01-21T16:26:49.414Z,2.00
2023-01-21T16:31:50.383Z,1.60
2023-01-21T16:34:25.102Z,1.95
2023-01-21T16:36:52.237Z,2.15
2023-01-21T16:41:59.137Z,2.75
2023-01-21T16:44:27.518Z,1.95
2023-01-21T16:49:21.521Z,1.95
2023-01-21T16:54:24.737Z,1.83
2023-01-21T16:56:59.763Z,1.95
2023-01-21T16:59:28.448Z,2.03
2023-01-21T17:01:55.822Z,1.38
2023-01-21T17:04:23.058Z,1.88
2023-01-21T17:06:50.153Z,1.65
2023-01-21T17:11:52.037Z,1.67
2023-01-21T17:16:50.429Z,1.67
2023-01-21T17:19:27.075Z,1.42
2023-01-21T17:22:14.820Z,2.03
2023-01-21T17:24:44.183Z,1.98
2023-01-21T17:27:13.813Z,1.85
2023-01-21T17:29:42.101Z,1.63
2023-01-21T17:32:31.924Z,1.45
2023-01-21T17:35:10.705Z,1.70
2023-01-21T17:37:53.778Z,1.70
2023-01-21T17:40:25.865Z,2.05
2023-01-21T17:42:53.208Z,1.50
2023-01-21T17:45:30.951Z,1.90
2023-01-21T17:48:09.720Z,1.90
2023-01-21T17:50:38.937Z,2.03
2023-01-21T17:55:35.812Z,1.73
2023-01-21T17:58:05.747Z,2.03
2023-01-21T18:00:44.147Z,2.10
2023-01-21T18:03:11.788Z,1.98
2023-01-21T18:05:39.298Z,2.13
2023-01-21T18:08:16.332Z,2.33
2023-01-21T18:10:46.855Z,1.75
2023-01-21T18:13:14.908Z,1.88
2023-01-21T18:15:43.170Z,1.90
2023-01-21T18:18:29.009Z,2.00
2023-01-21T18:20:56.251Z,1.60
2023-01-21T18:23:23.332Z,1.80
2023-01-21T18:28:20.510Z,1.83
2023-01-21T18:30:47.807Z,1.95
2023-01-21T18:33:15.072Z,1.80
2023-01-21T18:35:44.081Z,1.60
2023-01-21T18:38:22.439Z,1.60
2023-01-21T18:40:49.482Z,1.70
2023-01-21T18:45:43.736Z,1.50
2023-01-21T18:50:39.478Z,1.90
2023-01-21T18:53:07.961Z,1.75
2023-01-21T18:55:35.051Z,2.22
2023-01-21T19:00:30.763Z,1.53
2023-01-21T19:02:58.814Z,1.73
2023-01-21T19:05:27.191Z,2.13
2023-01-21T19:07:54.331Z,2.13
2023-01-21T19:12:48.758Z,1.92
2023-01-21T19:15:20.822Z,1.75
2023-01-21T19:17:48.465Z,1.67
2023-01-21T19:20:20.087Z,2.60
2023-01-21T19:22:47.373Z,2.00
2023-01-21T19:27:43.012Z,1.80
2023-01-21T19:30:39.158Z,1.80
2023-01-21T19:33:06.295Z,2.13
2023-01-21T19:38:08.222Z,2.15
2023-01-21T19:40:35.491Z,2.08
2023-01-21T19:43:02.539Z,2.00
2023-01-21T19:47:56.693Z,1.98
2023-01-21T19:50:25.375Z,1.83
2023-01-21T19:52:53.131Z,1.88
2023-01-21T19:55:22.411Z,2.08
2023-01-21T19:57:56.944Z,1.90
2023-01-21T20:00:26.051Z,2.25
2023-01-21T20:02:53.257Z,2.38
2023-01-21T20:05:20.697Z,2.10
2023-01-21T20:07:48.876Z,2.20
2023-01-21T20:10:19.877Z,2.53
2023-01-21T20:12:47.158Z,2.10
2023-01-21T20:15:18.606Z,2.17
2023-01-21T20:17:49.535Z,2.30
2023-01-21T20:20:18.814Z,2.67
2023-01-21T20:22:46.147Z,2.28
2023-01-21T20:25:17.932Z,2.10
2023-01-21T20:27:49.850Z,2.00
2023-01-21T20:30:21.540Z,2.38
2023-01-21T20:32:49.224Z,2.47
2023-01-21T20:35:17.156Z,2.63
2023-01-21T20:37:51.383Z,1.65
2023-01-21T20:40:20.394Z,1.92
2023-01-21T20:42:47.902Z,1.83
2023-01-21T20:45:16.103Z,2.55
2023-01-21T20:47:50.051Z,1.92
2023-01-21T20:50:33.594Z,2.30
2023-01-21T20:53:00.726Z,1.90
2023-01-21T20:57:55.103Z,1.50
2023-01-21T21:00:24.649Z,1.70
2023-01-21T21:02:51.665Z,1.75
2023-01-21T21:07:46.471Z,1.70
2023-01-21T21:10:36.176Z,2.08
2023-01-21T21:13:03.718Z,2.47
2023-01-21T21:15:31.808Z,2.05
2023-01-21T21:17:59.134Z,1.73
2023-01-21T21:20:36.971Z,2.22
2023-01-21T21:23:04.317Z,2.95
2023-01-21T21:25:32.760Z,2.90
2023-01-21T21:27:59.879Z,2.25
2023-01-21T21:32:55.817Z,2.25
2023-01-21T21:35:31.945Z,3.33
2023-01-21T21:38:01.317Z,3.78
2023-01-21T21:40:31.636Z,2.67
2023-01-21T21:43:17.619Z,2.40
2023-01-21T21:46:03.428Z,2.70
2023-01-21T21:48:39.690Z,2.45
2023-01-21T21:51:11.055Z,2.35
2023-01-21T21:53:38.547Z,2.00
2023-01-21T21:56:15.477Z,2.10
2023-01-21T21:58:42.839Z,2.55
2023-01-21T22:01:14.304Z,1.77
2023-01-21T22:03:41.536Z,2.10
2023-01-21T22:06:09.000Z,1.63
2023-01-21T22:08:37.282Z,2.05
2023-01-21T22:11:05.778Z,2.30
2023-01-21T22:13:35.180Z,1.77
2023-01-21T22:16:02.328Z,2.22
2023-01-21T22:21:03.484Z,1.80
2023-01-21T22:23:31.151Z,1.88
2023-01-21T22:26:00.347Z,1.83
2023-01-21T22:28:27.384Z,1.92
2023-01-21T22:30:54.886Z,2.03
2023-01-21T22:33:22.373Z,1.77
2023-01-21T22:35:49.448Z,1.80
2023-01-21T22:40:43.639Z,1.77
2023-01-21T22:45:37.645Z,1.50
2023-01-21T22:50:31.819Z,1.73
2023-01-21T22:52:58.985Z,1.83
2023-01-21T22:55:26.062Z,1.70
2023-01-21T23:00:35.693Z,1.58
2023-01-21T23:03:02.904Z,1.13
2023-01-21T23:05:30.221Z,1.50
2023-01-21T23:12:51.645Z,1.70
2023-01-21T23:17:45.727Z,1.70
2023-01-21T23:22:40.051Z,1.30
2023-01-21T23:25:07.979Z,1.92
2023-01-21T23:27:34.965Z,2.25
2023-01-21T23:30:02.091Z,2.35
2023-01-21T23:32:29.230Z,2.50
2023-01-21T23:37:23.172Z,2.08
2023-01-21T23:42:17.455Z,1.75
2023-01-21T23:44:44.601Z,2.33
2023-01-21T23:49:38.517Z,1.70
2023-01-21T23:54:33.719Z,2.70
2023-01-21T23:57:00.868Z,2.15
